sensor_id;sensor_type;location;lat;lon;timestamp;pressure;altitude;pressure_sealevel;temperature;humidity
13058;BME280;6595;49.578;11.012;2023-05-19T00:00:24;995.587;;;9.37;66.4
13058;BME280;6595;49.578;11.012;2023-05-19T00:02:24;995.499;;;9.42;66.5
13058;BME280;6595;49.578;11.012;2023-05-19T00:04:24;995.515;;;9.42;66.0
13058;BME280;6595;49.578;11.012;2023-05-19T00:06:26;995.573;;;9.35;66.2
13058;BME280;6595;49.578;11.012;2023-05-19T00:08:23;995.493;;;9.34;66.1
13058;BME280;6595;49.578;11.012;2023-05-19T00:10:24;995.458;;;9.32;67.0
13058;BME280;6595;49.578;11.012;2023-05-19T00:12:24;995.419;;;9.29;66.6
13058;BME280;6595;49.578;11.012;2023-05-19T00:14:23;995.487;;;9.27;67.3
13058;BME280;6595;49.578;11.012;2023-05-19T00:16:25;995.421;;;9.22;67.6
13058;BME280;6595;49.578;11.012;2023-05-19T00:18:23;995.430;;;9.19;68.2
13058;BME280;6595;49.578;11.012;2023-05-19T00:20:24;995.395;;;9.18;68.1
13058;BME280;6595;49.578;11.012;2023-05-19T00:22:23;995.412;;;9.18;68.0
13058;BME280;6595;49.578;11.012;2023-05-19T00:24:23;995.458;;;9.14;67.7
13058;BME280;6595;49.578;11.012;2023-05-19T00:26:25;995.378;;;9.17;67.3
13058;BME280;6595;49.578;11.012;2023-05-19T00:28:23;995.403;;;9.21;68.5
13058;BME280;6595;49.578;11.012;2023-05-19T00:30:23;995.389;;;9.19;67.8
13058;BME280;6595;49.578;11.012;2023-05-19T00:32:23;995.337;;;9.25;67.7
13058;BME280;6595;49.578;11.012;2023-05-19T00:34:23;995.270;;;9.27;67.6
13058;BME280;6595;49.578;11.012;2023-05-19T00:36:24;995.323;;;9.28;68.0
13058;BME280;6595;49.578;11.012;2023-05-19T00:38:23;995.323;;;9.28;68.0
13058;BME280;6595;49.578;11.012;2023-05-19T00:40:23;995.285;;;9.35;67.4
13058;BME280;6595;49.578;11.012;2023-05-19T00:42:24;995.220;;;9.41;67.3
13058;BME280;6595;49.578;11.012;2023-05-19T00:44:23;995.388;;;9.42;67.3
13058;BME280;6595;49.578;11.012;2023-05-19T00:46:24;995.164;;;9.42;67.9
13058;BME280;6595;49.578;11.012;2023-05-19T00:48:24;995.195;;;9.41;67.4
13058;BME280;6595;49.578;11.012;2023-05-19T00:50:23;995.130;;;9.46;68.5
13058;BME280;6595;49.578;11.012;2023-05-19T00:52:24;995.217;;;9.52;67.9
13058;BME280;6595;49.578;11.012;2023-05-19T00:54:23;995.122;;;9.52;67.2
13058;BME280;6595;49.578;11.012;2023-05-19T00:56:24;995.142;;;9.48;67.4
13058;BME280;6595;49.578;11.012;2023-05-19T00:58:24;995.113;;;9.53;67.3
13058;BME280;6595;49.578;11.012;2023-05-19T01:00:24;995.082;;;9.63;67.6
13058;BME280;6595;49.578;11.012;2023-05-19T01:02:23;995.067;;;9.65;67.1
13058;BME280;6595;49.578;11.012;2023-05-19T01:04:24;995.037;;;9.66;66.7
13058;BME280;6595;49.578;11.012;2023-05-19T01:06:24;994.979;;;9.66;67.2
13058;BME280;6595;49.578;11.012;2023-05-19T01:08:23;994.983;;;9.78;66.9
13058;BME280;6595;49.578;11.012;2023-05-19T01:10:23;995.025;;;9.79;67.1
13058;BME280;6595;49.578;11.012;2023-05-19T01:12:24;995.055;;;9.83;67.2
13058;BME280;6595;49.578;11.012;2023-05-19T01:14:23;995.026;;;9.89;66.9
13058;BME280;6595;49.578;11.012;2023-05-19T01:16:30;995.026;;;9.89;66.9
13058;BME280;6595;49.578;11.012;2023-05-19T01:18:31;994.957;;;9.88;66.5
13058;BME280;6595;49.578;11.012;2023-05-19T01:20:30;995.001;;;9.85;66.9
13058;BME280;6595;49.578;11.012;2023-05-19T01:22:34;994.979;;;9.83;67.4
13058;BME280;6595;49.578;11.012;2023-05-19T01:24:37;994.933;;;9.83;67.6
13058;BME280;6595;49.578;11.012;2023-05-19T01:26:44;994.975;;;9.82;67.3
13058;BME280;6595;49.578;11.012;2023-05-19T01:28:33;994.975;;;9.82;67.3
13058;BME280;6595;49.578;11.012;2023-05-19T01:30:26;994.907;;;9.76;66.4
13058;BME280;6595;49.578;11.012;2023-05-19T01:32:24;994.905;;;9.76;67.3
13058;BME280;6595;49.578;11.012;2023-05-19T01:34:25;994.879;;;9.75;67.3
13058;BME280;6595;49.578;11.012;2023-05-19T01:36:25;994.874;;;9.75;67.1
13058;BME280;6595;49.578;11.012;2023-05-19T01:38:24;994.822;;;9.75;67.0
13058;BME280;6595;49.578;11.012;2023-05-19T01:40:24;994.891;;;9.75;67.2
13058;BME280;6595;49.578;11.012;2023-05-19T01:42:25;994.777;;;9.72;67.1
13058;BME280;6595;49.578;11.012;2023-05-19T01:44:24;994.822;;;9.72;68.1
13058;BME280;6595;49.578;11.012;2023-05-19T01:46:23;994.750;;;9.72;68.0
13058;BME280;6595;49.578;11.012;2023-05-19T01:48:24;994.829;;;9.66;66.8
13058;BME280;6595;49.578;11.012;2023-05-19T01:50:24;994.886;;;9.71;67.0
13058;BME280;6595;49.578;11.012;2023-05-19T01:52:24;994.892;;;9.75;66.6
13058;BME280;6595;49.578;11.012;2023-05-19T01:54:23;994.840;;;9.76;66.6
13058;BME280;6595;49.578;11.012;2023-05-19T01:56:30;994.936;;;9.76;67.2
13058;BME280;6595;49.578;11.012;2023-05-19T01:58:30;994.916;;;9.78;67.1
13058;BME280;6595;49.578;11.012;2023-05-19T02:00:28;994.871;;;9.86;66.9
13058;BME280;6595;49.578;11.012;2023-05-19T02:02:29;994.933;;;9.90;66.4
13058;BME280;6595;49.578;11.012;2023-05-19T02:04:29;994.853;;;9.92;66.3
13058;BME280;6595;49.578;11.012;2023-05-19T02:06:31;994.877;;;9.96;65.4
13058;BME280;6595;49.578;11.012;2023-05-19T02:08:29;994.877;;;9.96;65.4
13058;BME280;6595;49.578;11.012;2023-05-19T02:10:26;994.855;;;9.96;64.6
13058;BME280;6595;49.578;11.012;2023-05-19T02:12:27;994.877;;;9.97;64.5
13058;BME280;6595;49.578;11.012;2023-05-19T02:14:28;994.860;;;10.04;65.0
13058;BME280;6595;49.578;11.012;2023-05-19T02:16:27;994.815;;;10.06;65.0
13058;BME280;6595;49.578;11.012;2023-05-19T02:18:24;994.846;;;10.07;64.7
13058;BME280;6595;49.578;11.012;2023-05-19T02:20:23;994.831;;;10.14;65.7
13058;BME280;6595;49.578;11.012;2023-05-19T02:22:24;994.883;;;10.14;65.9
13058;BME280;6595;49.578;11.012;2023-05-19T02:24:24;994.826;;;10.16;64.7
13058;BME280;6595;49.578;11.012;2023-05-19T02:26:23;994.812;;;10.19;64.7
13058;BME280;6595;49.578;11.012;2023-05-19T02:28:24;994.785;;;10.17;65.1
13058;BME280;6595;49.578;11.012;2023-05-19T02:30:23;994.891;;;10.21;65.0
13058;BME280;6595;49.578;11.012;2023-05-19T02:32:24;994.894;;;10.23;65.1
13058;BME280;6595;49.578;11.012;2023-05-19T02:34:24;994.902;;;10.26;64.4
13058;BME280;6595;49.578;11.012;2023-05-19T02:36:23;994.856;;;10.23;64.1
13058;BME280;6595;49.578;11.012;2023-05-19T02:38:24;994.718;;;10.23;64.6
13058;BME280;6595;49.578;11.012;2023-05-19T02:40:23;994.746;;;10.23;65.4
13058;BME280;6595;49.578;11.012;2023-05-19T02:42:24;994.776;;;10.23;64.9
13058;BME280;6595;49.578;11.012;2023-05-19T02:44:23;994.731;;;10.21;64.5
13058;BME280;6595;49.578;11.012;2023-05-19T02:46:23;994.732;;;10.23;64.6
13058;BME280;6595;49.578;11.012;2023-05-19T02:48:24;994.687;;;10.29;64.6
13058;BME280;6595;49.578;11.012;2023-05-19T02:50:23;994.653;;;10.24;64.4
13058;BME280;6595;49.578;11.012;2023-05-19T02:52:24;994.645;;;10.20;64.1
13058;BME280;6595;49.578;11.012;2023-05-19T02:54:23;994.555;;;10.17;64.4
13058;BME280;6595;49.578;11.012;2023-05-19T02:56:23;994.528;;;10.17;64.8
13058;BME280;6595;49.578;11.012;2023-05-19T02:58:24;994.622;;;10.17;64.4
13058;BME280;6595;49.578;11.012;2023-05-19T03:00:23;994.614;;;10.20;64.3
13058;BME280;6595;49.578;11.012;2023-05-19T03:02:24;994.543;;;10.19;63.7
13058;BME280;6595;49.578;11.012;2023-05-19T03:04:24;994.553;;;10.19;64.2
13058;BME280;6595;49.578;11.012;2023-05-19T03:06:23;994.553;;;10.19;64.2
13058;BME280;6595;49.578;11.012;2023-05-19T03:08:24;994.617;;;10.21;64.5
13058;BME280;6595;49.578;11.012;2023-05-19T03:10:23;994.579;;;10.24;64.2
13058;BME280;6595;49.578;11.012;2023-05-19T03:12:24;994.511;;;10.27;64.1
13058;BME280;6595;49.578;11.012;2023-05-19T03:14:23;994.555;;;10.27;64.0
13058;BME280;6595;49.578;11.012;2023-05-19T03:16:24;994.518;;;10.33;63.6
13058;BME280;6595;49.578;11.012;2023-05-19T03:18:24;994.536;;;10.34;63.1
13058;BME280;6595;49.578;11.012;2023-05-19T03:20:23;994.568;;;10.39;63.1
13058;BME280;6595;49.578;11.012;2023-05-19T03:22:23;994.565;;;10.41;62.9
13058;BME280;6595;49.578;11.012;2023-05-19T03:24:24;994.561;;;10.48;62.7
13058;BME280;6595;49.578;11.012;2023-05-19T03:26:23;994.652;;;10.50;63.1
13058;BME280;6595;49.578;11.012;2023-05-19T03:28:24;994.659;;;10.53;62.7
13058;BME280;6595;49.578;11.012;2023-05-19T03:30:23;994.673;;;10.54;62.8
13058;BME280;6595;49.578;11.012;2023-05-19T03:32:24;994.673;;;10.54;62.8
13058;BME280;6595;49.578;11.012;2023-05-19T03:34:24;994.707;;;10.56;62.6
13058;BME280;6595;49.578;11.012;2023-05-19T03:36:23;994.616;;;10.58;62.4
13058;BME280;6595;49.578;11.012;2023-05-19T03:40:23;994.625;;;10.57;63.3
13058;BME280;6595;49.578;11.012;2023-05-19T03:42:24;994.646;;;10.63;62.5
13058;BME280;6595;49.578;11.012;2023-05-19T03:44:23;994.621;;;10.60;62.8
13058;BME280;6595;49.578;11.012;2023-05-19T03:46:23;994.625;;;10.61;63.1
13058;BME280;6595;49.578;11.012;2023-05-19T03:48:24;994.745;;;10.64;62.9
13058;BME280;6595;49.578;11.012;2023-05-19T03:50:23;994.737;;;10.67;62.5
13058;BME280;6595;49.578;11.012;2023-05-19T03:52:23;994.708;;;10.68;62.4
13058;BME280;6595;49.578;11.012;2023-05-19T03:54:24;994.768;;;10.70;62.7
13058;BME280;6595;49.578;11.012;2023-05-19T03:56:23;994.768;;;10.70;62.7
13058;BME280;6595;49.578;11.012;2023-05-19T03:58:24;994.743;;;10.72;62.4
13058;BME280;6595;49.578;11.012;2023-05-19T04:00:23;994.751;;;10.72;62.4
13058;BME280;6595;49.578;11.012;2023-05-19T04:02:24;994.774;;;10.70;63.0
13058;BME280;6595;49.578;11.012;2023-05-19T04:04:24;994.692;;;10.72;62.5
13058;BME280;6595;49.578;11.012;2023-05-19T04:06:23;994.758;;;10.71;62.7
13058;BME280;6595;49.578;11.012;2023-05-19T04:08:24;994.889;;;10.72;62.4
13058;BME280;6595;49.578;11.012;2023-05-19T04:10:24;994.813;;;10.75;63.0
13058;BME280;6595;49.578;11.012;2023-05-19T04:12:23;994.851;;;10.78;62.7
13058;BME280;6595;49.578;11.012;2023-05-19T04:14:24;994.865;;;10.78;62.6
13058;BME280;6595;49.578;11.012;2023-05-19T04:16:23;994.964;;;10.80;62.4
13058;BME280;6595;49.578;11.012;2023-05-19T04:18:24;994.787;;;10.81;62.2
13058;BME280;6595;49.578;11.012;2023-05-19T04:20:24;994.893;;;10.80;62.9
13058;BME280;6595;49.578;11.012;2023-05-19T04:22:23;994.851;;;10.82;62.5
13058;BME280;6595;49.578;11.012;2023-05-19T04:24:24;994.863;;;10.84;61.9
13058;BME280;6595;49.578;11.012;2023-05-19T04:26:23;994.926;;;10.87;62.4
13058;BME280;6595;49.578;11.012;2023-05-19T04:28:24;994.868;;;10.91;61.5
13058;BME280;6595;49.578;11.012;2023-05-19T04:30:24;994.915;;;10.90;62.6
13058;BME280;6595;49.578;11.012;2023-05-19T04:32:23;994.924;;;10.88;62.1
13058;BME280;6595;49.578;11.012;2023-05-19T04:34:24;994.952;;;10.97;62.4
13058;BME280;6595;49.578;11.012;2023-05-19T04:36:23;994.964;;;10.97;62.2
13058;BME280;6595;49.578;11.012;2023-05-19T04:38:24;994.913;;;11.02;61.7
13058;BME280;6595;49.578;11.012;2023-05-19T04:40:23;994.913;;;11.02;61.7
13058;BME280;6595;49.578;11.012;2023-05-19T04:42:24;994.964;;;11.12;61.7
13058;BME280;6595;49.578;11.012;2023-05-19T04:44:23;994.885;;;11.19;61.6
13058;BME280;6595;49.578;11.012;2023-05-19T04:46:25;994.875;;;11.21;61.8
13058;BME280;6595;49.578;11.012;2023-05-19T04:48:23;994.897;;;11.28;61.3
13058;BME280;6595;49.578;11.012;2023-05-19T04:50:23;994.875;;;11.29;61.9
13058;BME280;6595;49.578;11.012;2023-05-19T04:52:24;994.829;;;11.38;60.7
13058;BME280;6595;49.578;11.012;2023-05-19T04:54:23;994.915;;;11.39;61.4
13058;BME280;6595;49.578;11.012;2023-05-19T04:56:24;994.920;;;11.41;60.9
13058;BME280;6595;49.578;11.012;2023-05-19T04:58:23;994.927;;;11.43;61.0
13058;BME280;6595;49.578;11.012;2023-05-19T05:00:23;994.933;;;11.55;60.7
13058;BME280;6595;49.578;11.012;2023-05-19T05:02:24;994.940;;;11.62;61.2
13058;BME280;6595;49.578;11.012;2023-05-19T05:04:23;994.868;;;11.62;60.4
13058;BME280;6595;49.578;11.012;2023-05-19T05:06:23;994.882;;;11.68;59.8
13058;BME280;6595;49.578;11.012;2023-05-19T05:08:24;994.926;;;11.72;59.8
13058;BME280;6595;49.578;11.012;2023-05-19T05:10:24;994.937;;;11.73;59.7
13058;BME280;6595;49.578;11.012;2023-05-19T05:12:24;994.873;;;11.76;60.0
13058;BME280;6595;49.578;11.012;2023-05-19T05:14:23;994.999;;;11.72;60.5
13058;BME280;6595;49.578;11.012;2023-05-19T05:16:25;994.979;;;11.70;60.3
13058;BME280;6595;49.578;11.012;2023-05-19T05:18:24;994.929;;;11.75;60.4
13058;BME280;6595;49.578;11.012;2023-05-19T05:20:25;995.026;;;11.70;59.7
13058;BME280;6595;49.578;11.012;2023-05-19T05:22:24;994.918;;;11.69;59.6
13058;BME280;6595;49.578;11.012;2023-05-19T05:24:23;994.886;;;11.72;59.2
13058;BME280;6595;49.578;11.012;2023-05-19T05:26:27;994.932;;;11.76;59.7
13058;BME280;6595;49.578;11.012;2023-05-19T05:28:23;994.869;;;11.80;60.6
13058;BME280;6595;49.578;11.012;2023-05-19T05:30:24;994.775;;;11.82;60.1
13058;BME280;6595;49.578;11.012;2023-05-19T05:32:23;994.700;;;11.90;60.3
13058;BME280;6595;49.578;11.012;2023-05-19T05:34:23;994.802;;;11.89;60.7
13058;BME280;6595;49.578;11.012;2023-05-19T05:36:24;994.763;;;11.89;60.8
13058;BME280;6595;49.578;11.012;2023-05-19T05:38:23;994.667;;;11.96;60.3
13058;BME280;6595;49.578;11.012;2023-05-19T05:40:24;994.779;;;11.99;60.1
13058;BME280;6595;49.578;11.012;2023-05-19T05:42:23;994.738;;;12.04;60.0
13058;BME280;6595;49.578;11.012;2023-05-19T05:44:23;994.653;;;12.09;59.9
13058;BME280;6595;49.578;11.012;2023-05-19T05:46:24;994.765;;;12.15;59.6
13058;BME280;6595;49.578;11.012;2023-05-19T05:48:24;994.667;;;12.23;58.8
13058;BME280;6595;49.578;11.012;2023-05-19T05:50:25;994.810;;;12.31;58.9
13058;BME280;6595;49.578;11.012;2023-05-19T05:52:28;994.806;;;12.33;59.1
13058;BME280;6595;49.578;11.012;2023-05-19T05:54:23;994.790;;;12.33;59.9
13058;BME280;6595;49.578;11.012;2023-05-19T05:56:24;994.817;;;12.45;58.7
13058;BME280;6595;49.578;11.012;2023-05-19T05:58:23;994.880;;;12.50;58.7
13058;BME280;6595;49.578;11.012;2023-05-19T06:00:24;994.953;;;12.54;58.6
13058;BME280;6595;49.578;11.012;2023-05-19T06:02:23;994.837;;;12.61;58.8
13058;BME280;6595;49.578;11.012;2023-05-19T06:04:23;994.763;;;12.61;59.0
13058;BME280;6595;49.578;11.012;2023-05-19T06:06:24;994.781;;;12.77;57.4
13058;BME280;6595;49.578;11.012;2023-05-19T06:08:23;994.932;;;12.81;57.8
13058;BME280;6595;49.578;11.012;2023-05-19T06:10:24;994.949;;;12.81;58.3
13058;BME280;6595;49.578;11.012;2023-05-19T06:12:23;994.871;;;12.84;58.1
13058;BME280;6595;49.578;11.012;2023-05-19T06:14:24;994.859;;;12.84;56.8
13058;BME280;6595;49.578;11.012;2023-05-19T06:16:24;994.896;;;12.85;56.5
13058;BME280;6595;49.578;11.012;2023-05-19T06:18:23;994.873;;;13.04;57.2
13058;BME280;6595;49.578;11.012;2023-05-19T06:20:24;994.901;;;13.04;56.8
13058;BME280;6595;49.578;11.012;2023-05-19T06:22:23;994.902;;;13.12;56.5
13058;BME280;6595;49.578;11.012;2023-05-19T06:24:24;994.882;;;13.19;56.2
13058;BME280;6595;49.578;11.012;2023-05-19T06:26:23;994.882;;;13.19;56.2
13058;BME280;6595;49.578;11.012;2023-05-19T06:28:23;994.823;;;13.26;56.6
13058;BME280;6595;49.578;11.012;2023-05-19T06:30:24;994.927;;;13.36;56.7
13058;BME280;6595;49.578;11.012;2023-05-19T06:32:23;994.911;;;13.39;56.2
13058;BME280;6595;49.578;11.012;2023-05-19T06:34:23;994.863;;;13.48;56.2
13058;BME280;6595;49.578;11.012;2023-05-19T06:36:24;994.880;;;13.60;56.0
13058;BME280;6595;49.578;11.012;2023-05-19T06:38:23;994.936;;;13.66;54.8
13058;BME280;6595;49.578;11.012;2023-05-19T06:40:24;994.891;;;13.65;55.1
13058;BME280;6595;49.578;11.012;2023-05-19T06:42:23;994.949;;;13.65;55.7
13058;BME280;6595;49.578;11.012;2023-05-19T06:44:24;994.865;;;13.72;55.6
13058;BME280;6595;49.578;11.012;2023-05-19T06:46:24;994.861;;;13.87;54.8
13058;BME280;6595;49.578;11.012;2023-05-19T06:48:23;994.981;;;13.86;54.6
13058;BME280;6595;49.578;11.012;2023-05-19T06:50:24;994.897;;;13.90;54.7
13058;BME280;6595;49.578;11.012;2023-05-19T06:52:24;994.945;;;14.02;54.3
13058;BME280;6595;49.578;11.012;2023-05-19T06:54:24;994.929;;;13.92;54.2
13058;BME280;6595;49.578;11.012;2023-05-19T06:56:23;994.850;;;13.89;53.4
13058;BME280;6595;49.578;11.012;2023-05-19T06:58:23;994.891;;;13.96;54.5
13058;BME280;6595;49.578;11.012;2023-05-19T07:00:24;994.889;;;14.10;53.9
13058;BME280;6595;49.578;11.012;2023-05-19T07:02:23;994.859;;;14.16;53.4
13058;BME280;6595;49.578;11.012;2023-05-19T07:04:23;994.903;;;14.34;54.3
13058;BME280;6595;49.578;11.012;2023-05-19T07:06:24;994.905;;;14.33;54.2
13058;BME280;6595;49.578;11.012;2023-05-19T07:08:23;994.881;;;14.27;53.7
13058;BME280;6595;49.578;11.012;2023-05-19T07:10:23;994.916;;;14.37;53.7
13058;BME280;6595;49.578;11.012;2023-05-19T07:12:23;994.941;;;14.28;53.9
13058;BME280;6595;49.578;11.012;2023-05-19T07:14:24;994.861;;;14.48;53.2
13058;BME280;6595;49.578;11.012;2023-05-19T07:16:23;994.813;;;14.44;52.9
13058;BME280;6595;49.578;11.012;2023-05-19T07:18:24;994.827;;;14.60;53.1
13058;BME280;6595;49.578;11.012;2023-05-19T07:20:24;994.772;;;14.71;52.8
13058;BME280;6595;49.578;11.012;2023-05-19T07:22:23;994.649;;;14.89;52.5
13058;BME280;6595;49.578;11.012;2023-05-19T07:24:24;994.752;;;14.87;53.0
13058;BME280;6595;49.578;11.012;2023-05-19T07:26:23;994.756;;;14.89;52.3
13058;BME280;6595;49.578;11.012;2023-05-19T07:28:23;994.757;;;14.99;51.9
13058;BME280;6595;49.578;11.012;2023-05-19T07:30:25;994.819;;;14.98;52.2
13058;BME280;6595;49.578;11.012;2023-05-19T07:32:23;994.756;;;15.02;52.1
13058;BME280;6595;49.578;11.012;2023-05-19T07:34:24;994.825;;;15.01;51.9
13058;BME280;6595;49.578;11.012;2023-05-19T07:36:23;994.729;;;14.94;51.7
13058;BME280;6595;49.578;11.012;2023-05-19T07:38:23;994.662;;;15.02;52.2
13058;BME280;6595;49.578;11.012;2023-05-19T07:40:24;994.711;;;15.05;52.0
13058;BME280;6595;49.578;11.012;2023-05-19T07:42:24;994.686;;;15.03;51.7
13058;BME280;6595;49.578;11.012;2023-05-19T07:44:23;994.704;;;15.23;51.4
13058;BME280;6595;49.578;11.012;2023-05-19T07:46:24;994.745;;;15.31;51.5
13058;BME280;6595;49.578;11.012;2023-05-19T07:48:23;994.698;;;15.29;51.1
13058;BME280;6595;49.578;11.012;2023-05-19T07:50:23;994.662;;;15.49;51.7
13058;BME280;6595;49.578;11.012;2023-05-19T07:52:24;994.584;;;15.92;51.0
13058;BME280;6595;49.578;11.012;2023-05-19T07:54:23;994.529;;;16.06;49.3
13058;BME280;6595;49.578;11.012;2023-05-19T07:56:24;994.593;;;16.04;49.2
13058;BME280;6595;49.578;11.012;2023-05-19T07:58:23;994.606;;;16.13;49.4
13058;BME280;6595;49.578;11.012;2023-05-19T08:00:23;994.569;;;16.23;48.7
13058;BME280;6595;49.578;11.012;2023-05-19T08:02:24;994.579;;;16.14;49.5
13058;BME280;6595;49.578;11.012;2023-05-19T08:04:23;994.628;;;16.00;49.0
13058;BME280;6595;49.578;11.012;2023-05-19T08:06:23;994.576;;;15.94;50.1
13058;BME280;6595;49.578;11.012;2023-05-19T08:08:24;994.568;;;15.92;49.7
13058;BME280;6595;49.578;11.012;2023-05-19T08:10:23;994.471;;;15.82;50.2
13058;BME280;6595;49.578;11.012;2023-05-19T08:12:24;994.574;;;15.80;50.2
13058;BME280;6595;49.578;11.012;2023-05-19T08:14:23;994.572;;;15.80;50.7
13058;BME280;6595;49.578;11.012;2023-05-19T08:16:23;994.523;;;15.82;50.9
13058;BME280;6595;49.578;11.012;2023-05-19T08:18:24;994.510;;;15.82;49.0
13058;BME280;6595;49.578;11.012;2023-05-19T08:20:23;994.397;;;15.83;48.5
13058;BME280;6595;49.578;11.012;2023-05-19T08:22:24;994.478;;;15.86;47.9
13058;BME280;6595;49.578;11.012;2023-05-19T08:24:23;994.533;;;15.92;48.5
13058;BME280;6595;49.578;11.012;2023-05-19T08:26:23;994.554;;;15.97;48.1
13058;BME280;6595;49.578;11.012;2023-05-19T08:28:24;994.605;;;16.34;47.6
13058;BME280;6595;49.578;11.012;2023-05-19T08:30:23;994.588;;;16.45;47.5
13058;BME280;6595;49.578;11.012;2023-05-19T08:32:24;994.526;;;16.43;47.9
13058;BME280;6595;49.578;11.012;2023-05-19T08:34:23;994.509;;;16.37;47.9
13058;BME280;6595;49.578;11.012;2023-05-19T08:36:23;994.494;;;16.47;47.3
13058;BME280;6595;49.578;11.012;2023-05-19T08:38:24;994.495;;;16.60;48.1
13058;BME280;6595;49.578;11.012;2023-05-19T08:40:24;994.522;;;16.61;48.2
13058;BME280;6595;49.578;11.012;2023-05-19T08:42:23;994.464;;;16.61;47.4
13058;BME280;6595;49.578;11.012;2023-05-19T08:44:24;994.491;;;16.45;47.8
13058;BME280;6595;49.578;11.012;2023-05-19T08:46:24;994.427;;;16.60;47.2
13058;BME280;6595;49.578;11.012;2023-05-19T08:48:28;994.349;;;16.52;47.2
13058;BME280;6595;49.578;11.012;2023-05-19T08:50:28;994.322;;;16.51;47.3
13058;BME280;6595;49.578;11.012;2023-05-19T08:52:26;994.449;;;16.54;46.5
13058;BME280;6595;49.578;11.012;2023-05-19T08:54:24;994.337;;;16.31;47.3
13058;BME280;6595;49.578;11.012;2023-05-19T08:56:24;994.276;;;16.31;47.3
13058;BME280;6595;49.578;11.012;2023-05-19T08:58:24;994.302;;;16.44;46.9
13058;BME280;6595;49.578;11.012;2023-05-19T09:00:24;994.249;;;16.47;47.1
13058;BME280;6595;49.578;11.012;2023-05-19T09:02:24;994.313;;;16.48;47.4
13058;BME280;6595;49.578;11.012;2023-05-19T09:04:23;994.337;;;16.35;47.5
13058;BME280;6595;49.578;11.012;2023-05-19T09:06:24;994.275;;;16.50;47.4
13058;BME280;6595;49.578;11.012;2023-05-19T09:08:23;994.286;;;16.48;46.6
13058;BME280;6595;49.578;11.012;2023-05-19T09:10:23;994.265;;;16.60;46.6
13058;BME280;6595;49.578;11.012;2023-05-19T09:12:24;994.267;;;16.54;46.6
13058;BME280;6595;49.578;11.012;2023-05-19T09:14:23;994.258;;;16.57;46.3
13058;BME280;6595;49.578;11.012;2023-05-19T09:16:23;994.282;;;16.60;46.8
13058;BME280;6595;49.578;11.012;2023-05-19T09:18:24;994.239;;;16.50;46.9
13058;BME280;6595;49.578;11.012;2023-05-19T09:20:23;994.297;;;16.47;46.9
13058;BME280;6595;49.578;11.012;2023-05-19T09:22:23;994.244;;;16.43;47.0
13058;BME280;6595;49.578;11.012;2023-05-19T09:24:24;994.189;;;16.41;46.8
13058;BME280;6595;49.578;11.012;2023-05-19T09:26:23;994.193;;;16.57;47.1
13058;BME280;6595;49.578;11.012;2023-05-19T09:28:25;994.206;;;16.72;47.4
13058;BME280;6595;49.578;11.012;2023-05-19T09:30:23;994.198;;;16.78;45.8
13058;BME280;6595;49.578;11.012;2023-05-19T09:32:24;994.158;;;17.35;46.9
13058;BME280;6595;49.578;11.012;2023-05-19T09:34:24;994.182;;;17.53;45.1
13058;BME280;6595;49.578;11.012;2023-05-19T09:36:23;994.188;;;17.93;44.5
13058;BME280;6595;49.578;11.012;2023-05-19T09:38:24;994.246;;;18.04;44.3
13058;BME280;6595;49.578;11.012;2023-05-19T09:40:26;994.215;;;18.27;43.0
13058;BME280;6595;49.578;11.012;2023-05-19T09:42:23;994.200;;;18.43;42.1
13058;BME280;6595;49.578;11.012;2023-05-19T09:44:25;994.240;;;18.33;42.2
13058;BME280;6595;49.578;11.012;2023-05-19T09:46:24;994.214;;;18.15;42.3
13058;BME280;6595;49.578;11.012;2023-05-19T09:48:25;994.243;;;18.28;42.0
13058;BME280;6595;49.578;11.012;2023-05-19T09:50:24;994.130;;;18.44;42.0
13058;BME280;6595;49.578;11.012;2023-05-19T09:52:23;994.123;;;18.40;41.7
13058;BME280;6595;49.578;11.012;2023-05-19T09:54:25;994.254;;;18.31;42.1
13058;BME280;6595;49.578;11.012;2023-05-19T09:56:23;994.284;;;18.15;42.4
13058;BME280;6595;49.578;11.012;2023-05-19T09:58:24;994.204;;;18.28;42.6
13058;BME280;6595;49.578;11.012;2023-05-19T10:00:23;994.198;;;18.11;42.0
13058;BME280;6595;49.578;11.012;2023-05-19T10:02:24;994.172;;;17.81;42.9
13058;BME280;6595;49.578;11.012;2023-05-19T10:04:25;994.105;;;17.80;43.8
13058;BME280;6595;49.578;11.012;2023-05-19T10:06:24;994.070;;;17.76;44.9
13058;BME280;6595;49.578;11.012;2023-05-19T10:08:25;994.066;;;17.49;44.2
13058;BME280;6595;49.578;11.012;2023-05-19T10:10:24;994.014;;;17.56;43.9
13058;BME280;6595;49.578;11.012;2023-05-19T10:12:24;994.087;;;17.40;44.7
13058;BME280;6595;49.578;11.012;2023-05-19T10:14:25;994.054;;;17.40;44.9
13058;BME280;6595;49.578;11.012;2023-05-19T10:16:25;993.977;;;17.63;43.7
13058;BME280;6595;49.578;11.012;2023-05-19T10:18:24;994.013;;;17.50;43.4
13058;BME280;6595;49.578;11.012;2023-05-19T10:20:25;993.885;;;17.62;44.4
13058;BME280;6595;49.578;11.012;2023-05-19T10:22:24;993.959;;;17.80;43.8
13058;BME280;6595;49.578;11.012;2023-05-19T10:24:23;993.816;;;17.93;42.5
13058;BME280;6595;49.578;11.012;2023-05-19T10:26:24;993.921;;;18.03;43.1
13058;BME280;6595;49.578;11.012;2023-05-19T10:28:26;993.902;;;18.35;42.3
13058;BME280;6595;49.578;11.012;2023-05-19T10:30:27;993.884;;;18.45;42.3
13058;BME280;6595;49.578;11.012;2023-05-19T10:32:27;993.905;;;18.75;41.1
13058;BME280;6595;49.578;11.012;2023-05-19T10:34:41;993.827;;;18.78;41.0
13058;BME280;6595;49.578;11.012;2023-05-19T10:36:35;993.916;;;18.82;42.2
13058;BME280;6595;49.578;11.012;2023-05-19T10:38:29;993.771;;;18.92;41.0
13058;BME280;6595;49.578;11.012;2023-05-19T10:40:26;993.804;;;19.01;41.0
13058;BME280;6595;49.578;11.012;2023-05-19T10:42:32;993.739;;;18.89;41.5
13058;BME280;6595;49.578;11.012;2023-05-19T10:44:34;993.715;;;18.95;41.6
13058;BME280;6595;49.578;11.012;2023-05-19T10:46:23;993.699;;;19.15;40.7
13058;BME280;6595;49.578;11.012;2023-05-19T10:48:24;993.630;;;19.25;40.1
13058;BME280;6595;49.578;11.012;2023-05-19T10:50:24;993.590;;;19.15;40.0
13058;BME280;6595;49.578;11.012;2023-05-19T10:52:23;993.599;;;19.60;39.9
13058;BME280;6595;49.578;11.012;2023-05-19T10:54:41;993.639;;;19.60;39.6
13058;BME280;6595;49.578;11.012;2023-05-19T10:56:27;993.704;;;19.98;39.5